Flight Track Log - Related Links

Times and Time Zones

All times are in EDT time to prevent confusion due to time zone crossing. See the AWI3642 flight status page for this flight to view local times or setup timezone preferences in your user account.

Time Position Orientation Groundspeed Altitude Reporting Facility
EDT Latitude Longitude Course Direction KTS MPH feet Rate Location/Type
Sun 06:45:00 PM 44.1733 -73.2574 196° South  Level FlightAware Approximate
Sun 06:45:29 PM 44.3092 -73.1653 196° South 242 278 8,600  Level Boston Center
Sun 06:46:00 PM 44.0758 -73.2964 196° South  Level FlightAware Approximate
Sun 06:46:29 PM 44.2358 -73.1964 197° South 267 307 10,000  Level Boston Center
Sun 06:47:00 PM 43.9783 -73.3354 196° South  Level FlightAware Approximate
Sun 06:47:29 PM 44.1461 -73.2328 196° South 310 357 11,800  Level Boston Center
Sun 06:48:00 PM 43.8807 -73.3738 195° South  Level FlightAware Approximate
Sun 06:48:29 PM 44.0542 -73.2719 197° South 330 380 13,800  Level Boston Center
Sun 06:49:00 PM 43.7827 -73.4100 195° South  Level FlightAware Approximate
Sun 06:49:29 PM 43.9642 -73.3083 196° South 345 397 15,500  Level Boston Center
Sun 06:50:29 PM 43.8722 -73.3472 197° South 345 397 16,800 1,200 Climbing Boston Center
Sun 06:51:29 PM 43.7761 -73.3889 197° South 351 404 17,900 1,200 Climbing Boston Center
Sun 06:52:29 PM 43.6883 -73.4250 197° South 361 415 19,200 1,200 Climbing Boston Center
Sun 06:53:29 PM 43.5817 -73.4661 196° South 361 415 20,300 950 Climbing Boston Center
Sun 06:54:29 PM 43.5022 -73.4964 195° South 361 415 21,100 850 Climbing Boston Center
Sun 06:55:29 PM 43.3786 -73.5483 197° South 373 429 22,000 446 Climbing Boston Center
Sun 06:56:30 PM 43.2658 -73.5947 197° South 397 457 22,000  Level Boston Center
Sun 06:57:41 PM 43.1525 -73.6497 199° South 421 484 22,000  Level Boston Center
Sun 06:58:41 PM 43.0533 -73.7783 223° Southwest 426 490 22,000  Level Boston Center
Sun 06:59:41 PM 42.9683 -73.8958 225° Southwest 433 498 22,000  Level Boston Center
Sun 07:00:41 PM 42.8833 -74.0156 226° Southwest 438 504 22,000  Level Boston Center
Sun 07:01:41 PM 42.7942 -74.1350 225° Southwest 445 512 22,000  Level Boston Center
Sun 07:02:41 PM 42.7092 -74.2486 225° Southwest 445 512 22,000  Level Boston Center
Sun 07:03:41 PM 42.6239 -74.3644 225° Southwest 445 512 22,000  Level Boston Center
Sun 07:04:41 PM 42.5383 -74.4803 225° Southwest 445 512 22,000  Level Boston Center
Sun 07:05:41 PM 42.4508 -74.5983 225° Southwest 450 518 22,000  Level Boston Center
Sun 07:06:41 PM 42.3650 -74.7133 225° Southwest 445 512 22,000  Level Boston Center
Sun 07:07:41 PM 42.2772 -74.8281 224° Southwest 445 512 22,000 -683 Level Boston Center
Sun 07:09:28 PM 42.1056 -75.0169 219° Southwest 426 490 20,100 -959 Descending New York Center
Sun 07:10:30 PM 42.0261 -75.0872 213° Southwest 431 496 19,300 -555 Descending New York Center
Sun 07:11:27 PM 41.8994 -75.1875 211° Southwest 442 509 19,000 -655 Descending New York Center
Sun 07:12:29 PM 41.7986 -75.2700 211° Southwest 442 509 18,000 -1,100 Descending New York Center
Sun 07:13:27 PM 41.7019 -75.3494 212° Southwest 424 488 16,800 -1,322 Descending New York Center
Sun 07:14:27 PM 41.6203 -75.4133 210° Southwest 398 458 15,400 -1,328 Descending New York Center
Sun 07:15:29 PM 41.5342 -75.4822 211° Southwest 382 440 14,100 -1,426 Descending New York Center
Sun 07:16:29 PM 41.4394 -75.5583 211° Southwest 377 434 12,500 -1,059 Descending New York Center
Sun 07:17:28 PM 41.3533 -75.6269 211° Southwest 371 427 12,000 -303 Descending New York Center
Sun 07:18:28 PM 41.2678 -75.6842 207° Southwest 371 427 11,900 -545 Descending New York Center
Sun 07:19:29 PM 41.1694 -75.6908 183° South 354 407 10,900 -958 Descending New York Center
Sun 07:20:27 PM 41.0761 -75.6869 178° South 368 423 10,000 -458 Descending New York Center
Sun 07:21:27 PM 40.9758 -75.6878 180° South 368 423 10,000  Level New York Center
Sun 07:22:29 PM 40.8717 -75.6392 161° South 362 417 10,000  Level New York Center
Sun 07:23:28 PM 40.7797 -75.5942 160° South 356 410 10,000  Level New York Center
Sun 07:24:28 PM 40.6878 -75.5494 160° South 356 410 10,000 -50 Level New York Center
Sun 07:25:29 PM 40.6022 -75.5053 159° South 349 402 9,900 -303 Descending New York Center
Sun 07:26:27 PM 40.5347 -75.4733 160° South 296 341 9,400 -559 Descending New York Center
Sun 07:27:27 PM 40.4692 -75.4414 160° South 257 296 8,800 -793 Descending New York Center
Sun 07:28:28 PM 40.4100 -75.4103 158° South 247 284 7,800 -893 Descending New York Center
Sun 07:29:28 PM 40.3433 -75.4111 181° South 237 273 7,000 -397 Descending New York Center
Sun 07:30:29 PM 40.2778 -75.4342 195° South 232 267 7,000  Level New York Center
Sun 07:31:29 PM 40.2231 -75.4439 188° South 219 252 7,000 -203 Level New York Center
Sun 07:32:27 PM 40.1608 -75.4369 175° South 221 254 6,600 -508 Descending New York Center
Sun 07:33:27 PM 40.1050 -75.4278 173° South 216 249 6,000 -298 Descending New York Center
Sun 07:34:28 PM 40.0492 -75.4161 171° South 210 242 6,000  Level New York Center
Sun 07:35:29 PM 39.9933 -75.4014 169° South 210 242 6,000  Level New York Center
Sun 07:36:29 PM 39.9392 -75.4006 179° South 210 242 6,000 -99 Level New York Center
Sun 07:37:30 PM 39.9203 -75.4614 248° West 157 181 5,800 -508 Descending New York Center
Sun 07:38:27 PM 39.9078 -75.5122 252° West 157 181 5,000 -577 Descending New York Center
Sun 07:40:58 PM 39.8500 -75.6333 238° Southwest 180 207 3,800 -569 Descending Philadelphia TRACON
Sun 07:41:58 PM 39.8000 -75.6000 153° Southeast 185 213 3,000 -400 Descending Philadelphia TRACON
Sun 07:42:58 PM 39.8167 -75.5333 72° East 185 213 3,000 -50 Level Philadelphia TRACON
Sun 07:43:58 PM 39.8167 -75.4667 90° East 190 219 2,900 -100 Descending Philadelphia TRACON

Login

Don't have an account? Register now (free) for customized features, flight alerts, and more!